Flight Track Log - Related Links

Times and Time Zones

All times are in EDT time to prevent confusion due to time zone crossing. See the UAL822 flight status page for this flight to view local times or setup timezone preferences in your user account.

Time Position Orientation Groundspeed Altitude Reporting Facility
EDT Latitude Longitude Course Direction KTS MPH feet Rate Location/Type
Mon 08:37:53 PM 38.9833 -77.5000 83° East 184 212 2,500  Level Potomac TRACON
Mon 08:38:47 PM 39.0333 -77.5000 360° North 226 260 4,800 2,526 Climbing Potomac TRACON
Mon 08:39:47 PM 39.1167 -77.4667 17° North 281 323 7,300 2,600 Climbing Potomac TRACON
Mon 08:40:00 PM 39.0489 -76.8401 78° East  Level FlightAware Approximate
Mon 08:40:47 PM 39.1667 -77.4000 46° Northeast 318 366 10,000  Level Potomac TRACON
Mon 08:41:00 PM 39.0667 -76.6815 90° East  Level FlightAware Approximate
Mon 08:41:47 PM 39.1500 -77.2667 99° East 353 406 10,900  Level Potomac TRACON
Mon 08:42:00 PM 39.1004 -76.5291 83° East  Level FlightAware Approximate
Mon 08:42:47 PM 39.1167 -77.1500 110° East 365 420 13,900  Level Potomac TRACON
Mon 08:43:00 PM 39.1149 -76.3691 83° East  Level FlightAware Approximate
Mon 08:44:55 PM 39.0836 -76.8831 99° East 387 445 17,900  Level Washington Center
Mon 08:45:55 PM 39.0997 -76.7417 82° East 387 445 20,000 2,000 Climbing Washington Center
Mon 08:46:55 PM 39.1136 -76.5867 83° East 401 461 21,900 1,500 Climbing Washington Center
Mon 08:47:55 PM 39.1292 -76.4344 82° East 421 484 23,000 550 Climbing Washington Center
Mon 08:48:55 PM 39.1428 -76.2767 84° East 434 499 23,000 500 Level Washington Center
Mon 08:49:55 PM 39.1978 -76.1300 64° Northeast 439 505 24,000 1,250 Climbing Washington Center
Mon 08:50:55 PM 39.2817 -75.9964 51° Northeast 445 512 25,500 1,450 Climbing Washington Center
Mon 08:51:55 PM 39.3675 -75.8628 50° Northeast 467 537 26,900 1,000 Climbing Washington Center
Mon 08:52:55 PM 39.4550 -75.7206 51° Northeast 484 557 27,500 750 Climbing Washington Center
Mon 08:53:55 PM 39.5489 -75.5728 50° Northeast 506 582 28,400 1,050 Climbing Washington Center
Mon 08:54:55 PM 39.6425 -75.4192 52° Northeast 530 610 29,600 1,200 Climbing Washington Center
Mon 08:55:55 PM 39.7361 -75.2678 51° Northeast 537 618 30,800 656 Climbing Washington Center
Mon 08:57:03 PM 39.8494 -75.0756 52° Northeast 576 663 31,000 94 Climbing New York Center
Mon 08:58:03 PM 39.9469 -74.9192 51° Northeast 552 635 31,000  Level New York Center
Mon 08:59:04 PM 40.0375 -74.7700 52° Northeast 537 618 31,000  Level New York Center
Mon 09:00:04 PM 40.1214 -74.6308 52° Northeast 534 615 31,000 -50 Level New York Center
Mon 09:01:05 PM 40.2242 -74.4761 49° Northeast 550 633 30,900  Descending New York Center
Mon 09:02:03 PM 40.3408 -74.3464 40° Northeast 550 633 31,000 -468 Climbing New York Center
Mon 09:03:39 PM 40.5183 -74.1300 43° Northeast 554 638 29,700 -1,231 Descending Boston Center
Mon 09:04:39 PM 40.6000 -73.9489 59° Northeast 536 617 27,800 -1,800 Descending Boston Center
Mon 09:05:39 PM 40.6669 -73.7808 62° Northeast 523 602 26,100 -1,500 Descending Boston Center
Mon 09:06:39 PM 40.7331 -73.6425 58° Northeast 503 579 24,800 -1,100 Descending Boston Center
Mon 09:07:39 PM 40.8114 -73.5094 52° Northeast 477 549 23,900 -500 Descending Boston Center
Mon 09:08:39 PM 40.8958 -73.3847 48° Northeast 462 532 23,800 -450 Descending Boston Center
Mon 09:09:39 PM 40.9886 -73.2511 47° Northeast 449 517 23,000 -400 Descending Boston Center
Mon 09:10:39 PM 41.0686 -73.1339 48° Northeast 438 504 23,000  Level Boston Center
Mon 09:11:39 PM 41.1486 -73.0106 49° Northeast 433 498 23,000  Level Boston Center
Mon 09:12:39 PM 41.2283 -72.8872 49° Northeast 433 498 23,000 -50 Level Boston Center
Mon 09:13:39 PM 41.2786 -72.7550 63° Northeast 438 504 22,900 -50 Descending Boston Center
Mon 09:14:39 PM 41.3353 -72.6058 63° Northeast 438 504 22,900  Level Boston Center
Mon 09:15:39 PM 41.3875 -72.4622 64° Northeast 438 504 22,900 -650 Level Boston Center
Mon 09:16:39 PM 41.4394 -72.3183 64° Northeast 438 504 21,600 -1,700 Descending Boston Center
Mon 09:17:39 PM 41.4936 -72.1714 64° Northeast 421 484 19,500 -1,850 Descending Boston Center
Mon 09:18:39 PM 41.5389 -72.0519 63° Northeast 399 459 17,900 -1,800 Descending Boston Center
Mon 09:19:39 PM 41.5842 -71.9100 67° East 378 435 15,900 -2,050 Descending Boston Center
Mon 09:20:39 PM 41.6192 -71.7958 68° East 368 423 13,800 -2,150 Descending Boston Center
Mon 09:21:39 PM 41.6578 -71.6622 69° East 360 414 11,600 -1,400 Descending Boston Center
Mon 09:22:39 PM 41.6903 -71.5478 69° East 340 391 11,000 -300 Descending Boston Center
Mon 09:23:39 PM 41.7189 -71.4583 67° East 304 350 11,000  Level Boston Center
Mon 09:24:39 PM 41.7700 -71.3544 57° Northeast 289 333 11,000  Level Boston Center
Mon 09:25:39 PM 41.8192 -71.2814 48° Northeast 289 333 11,000 -800 Level Boston Center
Mon 09:26:39 PM 41.9022 -71.2378 21° North 283 326 9,400 -1,450 Descending Boston Center
Mon 09:27:39 PM 41.9686 -71.2031 21° North 288 331 8,100 -1,450 Descending Boston Center
Mon 09:28:39 PM 42.0472 -71.1597 22° Northeast 282 325 6,500 -1,684 Descending Boston Center
Mon 09:29:33 PM 42.1167 -71.1167 25° Northeast 268 308 4,900 -1,316 Descending KA90
Mon 09:30:33 PM 42.1833 -71.1000 10° North 238 274 4,000 -936 Descending KA90
Mon 09:31:22 PM 42.2167 -71.0667 37° Northeast 211 243 3,200 -980 Descending KA90

Login

Don't have an account? Register now (free) for customized features, flight alerts, and more!